Time;durP1;ratioP1;P1;durP2;ratioP2;P2;SDS_P1;SDS_P2;PMS_P1;PMS_P2;Temp;Humidity;BMP_temperature;BMP_pressure;BME280_temperature;BME280_humidity;BME280_pressure;Samples;Min_cycle;Max_cycle;Signal;HPM_P1;HPM_P2
2021/12/31 19:37:18;;;;;;;34.92;18.83;;;10.70;99.90;;;;;;5103363;27;20407;-75
2021/12/31 19:39:43;;;;;;;35.58;18.95;;;10.80;99.90;;;;;;5087327;28;20040;-75
2021/12/31 19:42:09;;;;;;;38.75;18.38;;;10.80;99.90;;;;;;5091894;28;20036;-75
2021/12/31 19:44:34;;;;;;;46.83;30.27;;;10.80;99.90;;;;;;5109036;28;20031;-75
2021/12/31 19:47:03;;;;;;;181.43;164.27;;;10.90;99.90;;;;;;5087271;28;20111;-75
2021/12/31 19:49:28;;;;;;;163.70;146.88;;;10.90;99.90;;;;;;5086659;28;20127;-75
2021/12/31 19:51:54;;;;;;;151.93;135.65;;;10.90;99.90;;;;;;5113277;28;20072;-76
2021/12/31 19:54:23;;;;;;;218.63;188.20;;;11.00;99.90;;;;;;5101352;28;20035;-75
2021/12/31 19:56:49;;;;;;;197.18;168.45;;;11.00;99.90;;;;;;5083919;28;20044;-74
2021/12/31 19:59:14;;;;;;;115.53;99.05;;;11.00;99.90;;;;;;5067358;28;20144;-75
2021/12/31 20:01:40;;;;;;;60.25;45.53;;;11.10;99.90;;;;;;5088720;28;20655;-76
2021/12/31 20:04:06;;;;;;;68.13;56.30;;;11.10;99.90;;;;;;5056587;28;20044;-75
2021/12/31 20:06:33;;;;;;;32.50;18.63;;;11.10;99.90;;;;;;5077021;28;20036;-75
2021/12/31 20:08:58;;;;;;;37.33;27.35;;;11.20;99.90;;;;;;5099150;28;20024;-75
2021/12/31 20:11:27;;;;;;;40.00;27.60;;;11.20;99.90;;;;;;5090562;28;20155;-74
2021/12/31 20:13:52;;;;;;;32.70;21.30;;;11.20;99.90;;;;;;5090354;28;20136;-75
2021/12/31 20:16:18;;;;;;;45.58;30.85;;;11.20;99.90;;;;;;5087127;28;20131;-76
2021/12/31 20:18:47;;;;;;;42.85;32.75;;;11.20;99.90;;;;;;5087368;28;20040;-76
2021/12/31 20:21:12;;;;;;;39.95;25.95;;;11.20;99.90;;;;;;5090906;28;20410;-76
2021/12/31 20:23:38;;;;;;;36.75;21.70;;;11.20;99.90;;;;;;5085958;28;20111;-75
2021/12/31 20:26:04;;;;;;;35.85;20.50;;;11.20;99.90;;;;;;5087599;28;20048;-75
2021/12/31 20:28:31;;;;;;;31.13;20.35;;;11.20;99.90;;;;;;5087259;28;20037;-76
2021/12/31 20:30:59;;;;;;;53.47;37.45;;;11.20;99.90;;;;;;5087663;28;20036;-75
2021/12/31 20:33:24;;;;;;;79.35;66.47;;;11.20;99.90;;;;;;5072497;28;20040;-74
2021/12/31 20:35:50;;;;;;;55.45;43.05;;;11.30;99.90;;;;;;5089645;28;20540;-75
2021/12/31 20:38:15;;;;;;;29.58;19.35;;;11.20;99.90;;;;;;5088886;28;20036;-76
2021/12/31 20:40:41;;;;;;;41.90;22.50;;;11.20;99.90;;;;;;5114959;27;20044;-74
2021/12/31 20:43:06;;;;;;;42.60;23.92;;;11.20;99.90;;;;;;5087324;28;20044;-75
2021/12/31 20:45:32;;;;;;;39.30;22.83;;;11.20;99.90;;;;;;5087828;28;20409;-74
2021/12/31 20:47:59;;;;;;;36.40;24.55;;;11.30;99.90;;;;;;5077677;28;20035;-75
2021/12/31 20:50:26;;;;;;;34.10;20.40;;;11.30;99.90;;;;;;5072591;28;20098;-74
2021/12/31 20:52:51;;;;;;;34.60;21.50;;;11.40;99.90;;;;;;5075418;28;20043;-76
2021/12/31 20:55:17;;;;;;;48.58;33.38;;;11.40;99.90;;;;;;5063233;28;20378;-76
2021/12/31 20:57:43;;;;;;;32.75;19.70;;;11.40;99.90;;;;;;5075367;28;20056;-75
2021/12/31 21:00:10;;;;;;;34.92;21.48;;;11.30;99.90;;;;;;5074277;28;20445;-76
2021/12/31 21:02:36;;;;;;;31.10;16.17;;;11.30;99.90;;;;;;5076511;28;20028;-74
2021/12/31 21:05:02;;;;;;;37.42;19.83;;;11.30;99.90;;;;;;5081561;28;20339;-75
2021/12/31 21:07:28;;;;;;;36.80;21.25;;;11.40;99.90;;;;;;5072916;28;20048;-74
2021/12/31 21:09:53;;;;;;;42.58;27.58;;;11.40;99.90;;;;;;5071813;28;20151;-76
2021/12/31 21:12:19;;;;;;;44.38;26.50;;;11.30;99.90;;;;;;5069028;28;20041;-75
2021/12/31 21:14:45;;;;;;;38.00;21.08;;;11.40;99.90;;;;;;5070993;28;20112;-75
2021/12/31 21:17:14;;;;;;;32.10;19.42;;;11.30;99.90;;;;;;5070472;28;20050;-76
2021/12/31 21:19:39;;;;;;;36.80;19.52;;;11.40;99.90;;;;;;5054226;28;20040;-75
2021/12/31 21:22:05;;;;;;;26.13;16.25;;;11.40;99.90;;;;;;5067567;28;20040;-76
2021/12/31 21:24:30;;;;;;;38.33;21.35;;;11.40;99.90;;;;;;5063689;28;20036;-76
2021/12/31 21:26:57;;;;;;;45.42;28.02;;;11.40;99.90;;;;;;5068533;28;20040;-75
2021/12/31 21:29:24;;;;;;;52.95;28.55;;;11.40;99.90;;;;;;5071665;28;20093;-76
2021/12/31 21:31:49;;;;;;;38.03;23.95;;;11.50;99.90;;;;;;5069047;28;20051;-75
2021/12/31 21:34:15;;;;;;;40.85;24.00;;;11.40;99.90;;;;;;5066215;28;20036;-76
2021/12/31 21:36:41;;;;;;;43.33;22.02;;;11.40;99.90;;;;;;5075588;28;20513;-76
2021/12/31 21:39:07;;;;;;;37.08;20.02;;;11.40;99.90;;;;;;5079720;28;20048;-75
2021/12/31 21:41:33;;;;;;;34.55;19.38;;;11.40;99.90;;;;;;5066879;28;20036;-75
2021/12/31 21:43:58;;;;;;;47.30;28.65;;;11.40;99.90;;;;;;5062936;28;20033;-76
2021/12/31 21:46:24;;;;;;;41.25;25.25;;;11.50;99.90;;;;;;5076150;28;20097;-75
2021/12/31 21:48:49;;;;;;;44.30;25.98;;;11.50;99.90;;;;;;5070232;28;20085;-75
2021/12/31 21:51:15;;;;;;;45.08;26.98;;;11.50;99.90;;;;;;5073920;28;20036;-75
2021/12/31 21:53:41;;;;;;;38.53;24.58;;;11.50;99.90;;;;;;5075892;28;20040;-75
2021/12/31 21:56:06;;;;;;;41.13;24.75;;;11.60;99.90;;;;;;5068407;28;20493;-76
2021/12/31 21:58:32;;;;;;;35.55;22.25;;;11.60;99.90;;;;;;5069296;28;20389;-76
2021/12/31 22:00:58;;;;;;;34.72;21.05;;;11.50;99.90;;;;;;5075538;28;20509;-76
2021/12/31 22:03:23;;;;;;;35.72;18.48;;;11.50;99.90;;;;;;5076985;28;20041;-76
2021/12/31 22:05:49;;;;;;;32.20;16.75;;;11.60;99.90;;;;;;5074851;28;20452;-75
2021/12/31 22:08:15;;;;;;;32.75;16.02;;;11.60;99.90;;;;;;5074731;28;20075;-75
2021/12/31 22:10:41;;;;;;;31.75;17.70;;;11.60;99.90;;;;;;5057315;28;20091;-75
2021/12/31 22:13:07;;;;;;;33.22;18.42;;;11.60;99.90;;;;;;5070752;28;20047;-75
2021/12/31 22:15:33;;;;;;;46.65;32.50;;;11.60;99.90;;;;;;5078381;28;20123;-76
2021/12/31 22:17:59;;;;;;;71.05;63.45;;;11.60;99.90;;;;;;5077355;28;20367;-75
2021/12/31 22:20:25;;;;;;;39.25;20.00;;;11.60;99.90;;;;;;5070115;28;20102;-74
2021/12/31 22:22:54;;;;;;;42.28;20.23;;;11.60;99.90;;;;;;5073902;28;20083;-77
2021/12/31 22:25:21;;;;;;;37.33;18.45;;;11.60;99.90;;;;;;5070420;28;20037;-74
2021/12/31 22:27:49;;;;;;;32.88;18.52;;;11.60;99.90;;;;;;5076315;28;20156;-75
2021/12/31 22:30:17;;;;;;;34.50;19.63;;;11.50;99.90;;;;;;5073319;28;20684;-74
2021/12/31 22:32:42;;;;;;;34.85;19.58;;;11.50;99.90;;;;;;5056048;28;20493;-75
2021/12/31 22:35:09;;;;;;;41.70;18.73;;;11.50;99.90;;;;;;5072138;28;20040;-76
2021/12/31 22:37:35;;;;;;;38.47;19.58;;;11.50;99.90;;;;;;5075793;28;20036;-75
2021/12/31 22:40:01;;;;;;;33.33;18.73;;;11.50;99.90;;;;;;5073984;28;20764;-75
2021/12/31 22:42:28;;;;;;;36.78;19.08;;;11.50;99.90;;;;;;5071545;28;20051;-76
2021/12/31 22:44:53;;;;;;;39.72;20.33;;;11.40;99.90;;;;;;5068769;28;20044;-76
2021/12/31 22:47:19;;;;;;;41.05;19.13;;;11.40;99.90;;;;;;5074913;28;20036;-75
2021/12/31 22:49:44;;;;;;;42.15;20.92;;;11.40;99.90;;;;;;5064530;28;20072;-75
2021/12/31 22:52:10;;;;;;;39.08;20.58;;;11.30;99.90;;;;;;5085491;28;20036;-76
2021/12/31 22:54:35;;;;;;;40.92;20.00;;;11.30;99.90;;;;;;5074029;28;20141;-76
2021/12/31 22:57:01;;;;;;;38.20;20.48;;;11.30;99.90;;;;;;5083865;28;20149;-76
2021/12/31 22:59:28;;;;;;;39.15;18.75;;;11.20;99.90;;;;;;5078638;28;20045;-76
2021/12/31 23:01:55;;;;;;;37.70;18.83;;;11.30;99.90;;;;;;5079416;28;20393;-76
2021/12/31 23:04:21;;;;;;;37.53;19.50;;;11.30;99.90;;;;;;5075927;28;20490;-76
2021/12/31 23:06:47;;;;;;;40.85;20.25;;;11.30;99.90;;;;;;5063669;28;20031;-76
2021/12/31 23:09:12;;;;;;;40.45;20.30;;;11.30;99.90;;;;;;5073190;28;20379;-75
2021/12/31 23:11:41;;;;;;;46.00;22.88;;;11.30;99.90;;;;;;5070100;28;20068;-76
2021/12/31 23:14:08;;;;;;;42.80;25.63;;;11.40;99.90;;;;;;5066888;28;20406;-75
2021/12/31 23:16:34;;;;;;;53.33;29.15;;;11.40;99.90;;;;;;5067186;28;21497;-75
2021/12/31 23:19:00;;;;;;;59.03;35.78;;;11.40;99.90;;;;;;5069044;28;20043;-76
2021/12/31 23:21:26;;;;;;;79.05;52.72;;;11.40;99.90;;;;;;5073613;28;20121;-75
2021/12/31 23:23:51;;;;;;;92.07;63.97;;;11.40;99.90;;;;;;5061324;28;20075;-76
2021/12/31 23:26:17;;;;;;;109.28;73.78;;;11.40;99.90;;;;;;5077562;28;20485;-75
2021/12/31 23:28:44;;;;;;;105.05;80.88;;;11.40;99.90;;;;;;5065318;28;20048;-76
2021/12/31 23:31:11;;;;;;;104.85;78.28;;;11.40;99.90;;;;;;5073122;28;20039;-76
2021/12/31 23:33:37;;;;;;;104.38;78.35;;;11.40;99.90;;;;;;5075291;28;20078;-75
2021/12/31 23:36:06;;;;;;;95.30;66.22;;;11.40;99.90;;;;;;5070783;28;20528;-75
2021/12/31 23:38:33;;;;;;;78.03;53.83;;;11.40;99.90;;;;;;5059139;28;20033;-76
2021/12/31 23:41:01;;;;;;;70.05;48.63;;;11.40;99.90;;;;;;5069818;28;20040;-76
2021/12/31 23:43:30;;;;;;;74.03;54.95;;;11.40;99.90;;;;;;5071049;28;20351;-76
2021/12/31 23:45:59;;;;;;;72.22;49.35;;;11.40;99.90;;;;;;5071209;28;20047;-76
2021/12/31 23:48:24;;;;;;;80.40;56.20;;;11.40;99.90;;;;;;5059940;28;20045;-76
2021/12/31 23:50:50;;;;;;;74.75;49.67;;;11.30;99.90;;;;;;5071582;28;20123;-75
2021/12/31 23:53:15;;;;;;;70.57;47.67;;;11.40;99.90;;;;;;5070993;28;20040;-75
2021/12/31 23:55:41;;;;;;;79.25;50.63;;;11.30;99.90;;;;;;5052762;28;20095;-76
2021/12/31 23:58:10;;;;;;;77.70;48.55;;;11.30;99.90;;;;;;5070706;28;20032;-75
